Time;durP1;ratioP1;P1;durP2;ratioP2;P2;SDS_P1;SDS_P2;PMS_P1;PMS_P2;Temp;Humidity;BMP_temperature;BMP_pressure;BME280_temperature;BME280_humidity;BME280_pressure;Samples;Min_cycle;Max_cycle;Signal;HPM_P1;HPM_P2
2022/01/29 00:00:29;;;;;;;;;;;21.10;31.60;;;;;;465758;256;1199;-40
2022/01/29 00:02:30;;;;;;;;;;;21.10;31.70;;;;;;465391;256;1301;-40
2022/01/29 00:04:32;;;;;;;;;;;21.10;31.70;;;;;;465333;256;1036;-40
2022/01/29 00:06:33;;;;;;;;;;;21.10;31.60;;;;;;465490;256;1415;-40
2022/01/29 00:08:34;;;;;;;;;;;21.10;31.70;;;;;;465362;256;2126;-40
2022/01/29 00:10:36;;;;;;;;;;;21.10;31.70;;;;;;465611;256;1196;-40
2022/01/29 00:12:37;;;;;;;;;;;21.10;31.60;;;;;;465643;256;1294;-40
2022/01/29 00:14:38;;;;;;;;;;;21.10;31.60;;;;;;465810;256;1062;-40
2022/01/29 00:16:41;;;;;;;;;;;21.10;31.60;;;;;;465367;255;1710;-39
2022/01/29 00:18:42;;;;;;;;;;;21.10;31.60;;;;;;465726;256;1205;-40
2022/01/29 00:20:44;;;;;;;;;;;21.00;31.70;;;;;;465391;256;1214;-40
2022/01/29 00:22:45;;;;;;;;;;;21.00;31.70;;;;;;465575;256;1223;-40
2022/01/29 00:24:46;;;;;;;;;;;21.10;31.70;;;;;;465448;256;1170;-40
2022/01/29 00:26:47;;;;;;;;;;;21.10;31.70;;;;;;465748;255;1324;-40
2022/01/29 00:28:51;;;;;;;;;;;21.10;31.80;;;;;;465592;256;2153;-40
2022/01/29 00:30:50;;;;;;;;;;;21.10;31.70;;;;;;465287;256;2258;-40
2022/01/29 00:32:51;;;;;;;;;;;21.10;31.80;;;;;;465366;256;1174;-40
2022/01/29 00:34:53;;;;;;;;;;;21.10;31.70;;;;;;465695;256;1178;-40
2022/01/29 00:36:54;;;;;;;;;;;21.10;31.70;;;;;;465564;256;2149;-39
2022/01/29 00:38:55;;;;;;;;;;;21.10;31.70;;;;;;465799;256;1096;-40
2022/01/29 00:40:57;;;;;;;;;;;21.00;31.80;;;;;;465648;255;1157;-40
2022/01/29 00:42:58;;;;;;;;;;;21.00;31.80;;;;;;465609;255;1396;-40
2022/01/29 00:44:59;;;;;;;;;;;21.00;31.80;;;;;;465874;256;1113;-40
2022/01/29 00:47:01;;;;;;;;;;;21.00;31.90;;;;;;465367;255;1187;-40
2022/01/29 00:49:02;;;;;;;;;;;21.00;31.80;;;;;;465853;255;2194;-40
2022/01/29 00:51:03;;;;;;;;;;;21.00;31.80;;;;;;465396;256;1150;-40
2022/01/29 00:53:05;;;;;;;;;;;21.00;31.80;;;;;;465630;256;1253;-39
2022/01/29 00:55:06;;;;;;;;;;;21.00;31.80;;;;;;465837;256;1064;-40
2022/01/29 00:57:07;;;;;;;;;;;21.00;31.80;;;;;;465559;255;1238;-40
2022/01/29 00:59:09;;;;;;;;;;;21.00;31.80;;;;;;465570;256;1248;-40
2022/01/29 01:01:10;;;;;;;;;;;21.00;31.80;;;;;;465789;256;1164;-40
2022/01/29 01:03:11;;;;;;;;;;;21.00;31.80;;;;;;465404;255;1354;-40
2022/01/29 01:05:12;;;;;;;;;;;21.00;31.90;;;;;;465377;256;1103;-40
2022/01/29 01:07:14;;;;;;;;;;;21.00;31.80;;;;;;465490;256;1160;-40
2022/01/29 01:09:15;;;;;;;;;;;20.90;31.90;;;;;;465531;256;2118;-40
2022/01/29 01:11:17;;;;;;;;;;;21.00;31.90;;;;;;465362;256;1398;-40
2022/01/29 01:13:18;;;;;;;;;;;21.00;31.90;;;;;;465495;256;1495;-40
2022/01/29 01:15:19;;;;;;;;;;;20.90;31.80;;;;;;465854;255;1084;-40
2022/01/29 01:17:20;;;;;;;;;;;21.00;31.90;;;;;;465547;255;1108;-40
2022/01/29 01:19:26;;;;;;;;;;;21.00;31.90;;;;;;465369;256;1030;-40
2022/01/29 01:21:23;;;;;;;;;;;21.00;31.90;;;;;;465171;253;2570;-40
2022/01/29 01:23:25;;;;;;;;;;;20.90;31.90;;;;;;465434;256;1048;-40
2022/01/29 01:25:26;;;;;;;;;;;21.00;31.90;;;;;;465396;255;1162;-40
2022/01/29 01:27:27;;;;;;;;;;;20.90;31.90;;;;;;465334;256;1515;-40
2022/01/29 01:29:29;;;;;;;;;;;20.90;32.00;;;;;;465378;255;2252;-40
2022/01/29 01:31:30;;;;;;;;;;;20.90;32.00;;;;;;465437;256;1144;-40
2022/01/29 01:33:31;;;;;;;;;;;20.90;32.00;;;;;;465507;255;1086;-40
2022/01/29 01:35:37;;;;;;;;;;;20.90;32.00;;;;;;465525;256;1201;-40
2022/01/29 01:37:39;;;;;;;;;;;20.90;32.00;;;;;;465089;256;2099;-40
2022/01/29 01:39:38;;;;;;;;;;;21.00;32.00;;;;;;465283;256;2119;-40
2022/01/29 01:41:40;;;;;;;;;;;20.90;31.90;;;;;;465276;256;2141;-40
2022/01/29 01:43:38;;;;;;;;;;;20.90;31.90;;;;;;465293;256;2256;-40
2022/01/29 01:45:39;;;;;;;;;;;20.90;31.90;;;;;;465505;256;1191;-40
2022/01/29 01:47:41;;;;;;;;;;;20.90;32.00;;;;;;465402;256;1244;-40
2022/01/29 01:49:42;;;;;;;;;;;20.90;32.00;;;;;;465436;256;2146;-40
2022/01/29 01:51:43;;;;;;;;;;;20.90;32.00;;;;;;465501;256;1191;-40
2022/01/29 01:53:44;;;;;;;;;;;20.90;32.00;;;;;;465414;256;1139;-40
2022/01/29 01:55:46;;;;;;;;;;;20.90;32.00;;;;;;465369;253;1206;-40
2022/01/29 01:57:47;;;;;;;;;;;20.90;32.00;;;;;;465456;255;1499;-40
2022/01/29 01:59:48;;;;;;;;;;;20.90;32.00;;;;;;465482;256;1192;-40
2022/01/29 02:01:50;;;;;;;;;;;20.90;32.00;;;;;;465313;255;1572;-40
2022/01/29 02:03:51;;;;;;;;;;;20.90;32.00;;;;;;465652;256;999;-40
2022/01/29 02:05:52;;;;;;;;;;;20.90;32.00;;;;;;465757;255;1042;-40
2022/01/29 02:07:54;;;;;;;;;;;20.90;32.10;;;;;;465718;256;1290;-40
2022/01/29 02:09:55;;;;;;;;;;;20.90;32.10;;;;;;465445;256;2126;-40
2022/01/29 02:11:57;;;;;;;;;;;20.80;32.20;;;;;;465327;256;1163;-40
2022/01/29 02:14:00;;;;;;;;;;;20.80;32.10;;;;;;465779;256;1290;-40
2022/01/29 02:16:01;;;;;;;;;;;20.80;32.10;;;;;;465729;256;2263;-40
2022/01/29 02:18:00;;;;;;;;;;;20.80;32.10;;;;;;465279;256;1919;-40
2022/01/29 02:20:02;;;;;;;;;;;20.80;32.00;;;;;;465395;256;1199;-39
2022/01/29 02:22:03;;;;;;;;;;;20.80;32.10;;;;;;465491;255;1518;-40
2022/01/29 02:24:04;;;;;;;;;;;20.80;32.00;;;;;;465770;256;1238;-40
2022/01/29 02:26:06;;;;;;;;;;;20.80;32.00;;;;;;465708;256;1446;-40
2022/01/29 02:28:07;;;;;;;;;;;20.80;32.10;;;;;;465629;255;1221;-40
2022/01/29 02:30:08;;;;;;;;;;;20.90;32.10;;;;;;465576;255;2201;-40
2022/01/29 02:32:10;;;;;;;;;;;20.80;32.10;;;;;;465376;256;1188;-40
2022/01/29 02:34:11;;;;;;;;;;;20.80;32.10;;;;;;465829;255;1098;-40
2022/01/29 02:36:12;;;;;;;;;;;20.80;32.00;;;;;;465739;256;1225;-40
2022/01/29 02:38:14;;;;;;;;;;;20.90;32.10;;;;;;465803;256;1259;-40
2022/01/29 02:40:16;;;;;;;;;;;20.90;32.00;;;;;;465599;255;1103;-40
2022/01/29 02:42:16;;;;;;;;;;;20.90;32.10;;;;;;465275;256;2477;-40
2022/01/29 02:44:20;;;;;;;;;;;20.90;32.00;;;;;;465770;256;1165;-40
2022/01/29 02:46:28;;;;;;;;;;;20.90;32.10;;;;;;465223;256;2046;-40
2022/01/29 02:48:21;;;;;;;;;;;20.90;32.10;;;;;;465386;256;2133;-40
2022/01/29 02:50:23;;;;;;;;;;;20.80;32.00;;;;;;465437;255;2283;-40
2022/01/29 02:52:24;;;;;;;;;;;20.90;32.10;;;;;;465774;256;1286;-40
2022/01/29 02:54:25;;;;;;;;;;;20.80;32.10;;;;;;465561;256;1079;-40
2022/01/29 02:56:27;;;;;;;;;;;20.80;32.00;;;;;;465293;256;1256;-40
2022/01/29 02:58:28;;;;;;;;;;;20.80;32.10;;;;;;465774;256;1274;-40
2022/01/29 03:00:29;;;;;;;;;;;20.80;32.10;;;;;;465624;256;1312;-40
2022/01/29 03:02:31;;;;;;;;;;;20.80;32.10;;;;;;465334;256;1177;-40
2022/01/29 03:04:32;;;;;;;;;;;20.80;32.00;;;;;;465465;256;1062;-40
2022/01/29 03:06:33;;;;;;;;;;;20.90;32.10;;;;;;465370;256;1251;-40
2022/01/29 03:08:34;;;;;;;;;;;20.90;32.10;;;;;;465461;256;1219;-40
2022/01/29 03:10:36;;;;;;;;;;;20.90;32.00;;;;;;465649;256;2119;-40
2022/01/29 03:12:40;;;;;;;;;;;20.90;32.00;;;;;;465623;256;1216;-40
2022/01/29 03:14:38;;;;;;;;;;;20.90;32.10;;;;;;465583;256;2416;-39
2022/01/29 03:16:40;;;;;;;;;;;20.90;32.00;;;;;;465351;256;1323;-40
2022/01/29 03:18:41;;;;;;;;;;;20.90;32.00;;;;;;465497;256;1117;-40
2022/01/29 03:20:42;;;;;;;;;;;20.90;32.00;;;;;;465726;256;1175;-40
2022/01/29 03:22:44;;;;;;;;;;;20.90;31.90;;;;;;465497;255;1212;-40
2022/01/29 03:24:45;;;;;;;;;;;20.90;32.00;;;;;;465408;256;1085;-40
2022/01/29 03:26:47;;;;;;;;;;;20.90;32.00;;;;;;465298;256;1338;-40
2022/01/29 03:28:48;;;;;;;;;;;20.90;32.00;;;;;;465358;255;1237;-40
2022/01/29 03:30:49;;;;;;;;;;;20.90;32.00;;;;;;465448;256;2134;-40
2022/01/29 03:32:51;;;;;;;;;;;20.90;32.00;;;;;;465423;255;1110;-40
2022/01/29 03:34:52;;;;;;;;;;;20.80;32.00;;;;;;465678;255;1239;-40
2022/01/29 03:36:55;;;;;;;;;;;20.80;32.00;;;;;;465311;255;1218;-40
2022/01/29 03:38:55;;;;;;;;;;;20.90;32.00;;;;;;465388;256;2424;-40
2022/01/29 03:40:58;;;;;;;;;;;20.90;32.00;;;;;;465637;256;1195;-40
2022/01/29 03:43:02;;;;;;;;;;;20.90;32.00;;;;;;465346;256;1995;-40
2022/01/29 03:45:01;;;;;;;;;;;20.90;32.00;;;;;;465644;256;2030;-40
2022/01/29 03:47:02;;;;;;;;;;;20.90;32.00;;;;;;465552;256;1322;-40
2022/01/29 03:49:03;;;;;;;;;;;20.90;31.90;;;;;;465568;256;1070;-40
2022/01/29 03:51:05;;;;;;;;;;;20.90;31.90;;;;;;465372;255;2201;-40
2022/01/29 03:53:06;;;;;;;;;;;21.00;31.90;;;;;;465578;256;1209;-40
2022/01/29 03:55:07;;;;;;;;;;;20.90;31.90;;;;;;465414;256;1010;-40
2022/01/29 03:57:09;;;;;;;;;;;20.90;31.90;;;;;;465536;256;1203;-40
2022/01/29 03:59:10;;;;;;;;;;;20.90;32.00;;;;;;465846;255;1146;-40
2022/01/29 04:01:11;;;;;;;;;;;20.90;32.00;;;;;;465587;255;1311;-40
2022/01/29 04:03:13;;;;;;;;;;;20.90;32.00;;;;;;465668;256;1208;-40
2022/01/29 04:05:14;;;;;;;;;;;20.90;32.00;;;;;;465418;256;1044;-40
2022/01/29 04:07:15;;;;;;;;;;;20.90;31.90;;;;;;465401;256;1250;-40
2022/01/29 04:09:17;;;;;;;;;;;20.90;31.90;;;;;;465847;256;1070;-40
2022/01/29 04:11:18;;;;;;;;;;;20.90;32.00;;;;;;465416;256;2278;-40
2022/01/29 04:13:22;;;;;;;;;;;20.90;32.00;;;;;;465429;256;1204;-40
2022/01/29 04:15:20;;;;;;;;;;;20.90;32.00;;;;;;465288;256;2352;-40
2022/01/29 04:17:22;;;;;;;;;;;20.90;31.90;;;;;;465468;256;1589;-40
2022/01/29 04:19:23;;;;;;;;;;;20.90;31.90;;;;;;465574;255;1295;-40
2022/01/29 04:21:24;;;;;;;;;;;20.90;31.90;;;;;;465731;256;1180;-40
2022/01/29 04:23:26;;;;;;;;;;;20.90;31.90;;;;;;465423;255;1151;-40
2022/01/29 04:25:27;;;;;;;;;;;20.90;31.90;;;;;;465347;256;1329;-40
2022/01/29 04:27:35;;;;;;;;;;;20.90;31.90;;;;;;465574;256;1533;-40
2022/01/29 04:29:42;;;;;;;;;;;21.00;31.90;;;;;;465156;256;2057;-40
2022/01/29 04:31:40;;;;;;;;;;;21.00;31.90;;;;;;464742;256;2442;-40
2022/01/29 04:33:38;;;;;;;;;;;21.00;31.90;;;;;;465362;256;2176;-40
2022/01/29 04:35:39;;;;;;;;;;;21.00;31.90;;;;;;465598;256;1154;-40
2022/01/29 04:37:40;;;;;;;;;;;21.00;31.90;;;;;;465369;256;1368;-40
2022/01/29 04:39:42;;;;;;;;;;;20.90;31.90;;;;;;465416;256;1091;-40
2022/01/29 04:41:43;;;;;;;;;;;21.00;32.00;;;;;;465333;255;1351;-40
2022/01/29 04:43:44;;;;;;;;;;;21.00;32.00;;;;;;465433;256;1045;-40
2022/01/29 04:45:46;;;;;;;;;;;20.90;32.00;;;;;;465392;256;1620;-40
2022/01/29 04:47:47;;;;;;;;;;;20.90;31.90;;;;;;465530;256;1393;-40
2022/01/29 04:49:48;;;;;;;;;;;20.90;31.90;;;;;;465414;255;2217;-40
2022/01/29 04:51:50;;;;;;;;;;;20.90;32.00;;;;;;465782;255;1356;-40
2022/01/29 04:53:51;;;;;;;;;;;20.90;31.90;;;;;;465431;255;1067;-40
2022/01/29 04:55:52;;;;;;;;;;;21.00;31.90;;;;;;465332;255;1375;-40
2022/01/29 04:57:54;;;;;;;;;;;21.00;31.90;;;;;;465388;255;1152;-40
2022/01/29 04:59:55;;;;;;;;;;;21.00;31.90;;;;;;465828;256;1079;-40
2022/01/29 05:01:56;;;;;;;;;;;21.00;32.00;;;;;;465316;256;1301;-40
2022/01/29 05:03:57;;;;;;;;;;;21.00;32.00;;;;;;465846;256;1045;-40
2022/01/29 05:05:59;;;;;;;;;;;20.90;31.90;;;;;;465762;256;1265;-40
2022/01/29 05:08:00;;;;;;;;;;;20.90;32.00;;;;;;465382;256;1183;-40
2022/01/29 05:10:01;;;;;;;;;;;20.90;32.00;;;;;;465771;255;2211;-40
2022/01/29 05:12:03;;;;;;;;;;;20.90;32.00;;;;;;465563;256;1221;-40
2022/01/29 05:14:08;;;;;;;;;;;20.90;32.00;;;;;;465624;256;1084;-40
2022/01/29 05:16:27;;;;;;;;;;;20.90;31.90;;;;;;465164;256;2127;-40
2022/01/29 05:27:29;;;;;;;;;;;20.90;31.90;;;;;;465802;256;1214;-40
2022/01/29 05:29:32;;;;;;;;;;;20.90;31.90;;;;;;465424;255;1229;-40
2022/01/29 05:31:32;;;;;;;;;;;20.90;32.00;;;;;;465496;256;2122;-40
2022/01/29 05:33:33;;;;;;;;;;;20.90;32.00;;;;;;465486;256;1183;-40
2022/01/29 05:35:35;;;;;;;;;;;20.90;31.90;;;;;;465466;256;1011;-40
2022/01/29 05:37:36;;;;;;;;;;;21.00;31.90;;;;;;465350;256;1302;-40
2022/01/29 05:39:37;;;;;;;;;;;20.90;31.90;;;;;;465752;255;1084;-40
2022/01/29 05:41:39;;;;;;;;;;;21.00;31.90;;;;;;465384;256;1371;-39
2022/01/29 05:43:41;;;;;;;;;;;21.00;32.00;;;;;;465449;255;1117;-40
2022/01/29 05:45:41;;;;;;;;;;;21.00;31.90;;;;;;465379;256;1628;-40
2022/01/29 05:47:43;;;;;;;;;;;21.00;32.00;;;;;;465404;256;1537;-40
2022/01/29 05:49:44;;;;;;;;;;;21.00;31.90;;;;;;465754;256;1239;-40
2022/01/29 05:51:45;;;;;;;;;;;21.00;32.00;;;;;;465341;256;2213;-40
2022/01/29 05:53:47;;;;;;;;;;;21.00;32.00;;;;;;465790;256;1099;-40
2022/01/29 05:55:48;;;;;;;;;;;20.90;31.90;;;;;;465328;255;1143;-40
2022/01/29 05:57:49;;;;;;;;;;;20.90;31.90;;;;;;465340;256;1203;-40
2022/01/29 05:59:51;;;;;;;;;;;21.00;32.00;;;;;;465807;255;1086;-40
2022/01/29 06:01:52;;;;;;;;;;;21.00;32.00;;;;;;465632;256;1248;-40
2022/01/29 06:03:53;;;;;;;;;;;21.00;31.90;;;;;;465424;256;1061;-40
2022/01/29 06:05:55;;;;;;;;;;;21.00;31.90;;;;;;465330;255;1324;-40
2022/01/29 06:07:56;;;;;;;;;;;21.00;32.00;;;;;;465749;256;1207;-40
2022/01/29 06:09:57;;;;;;;;;;;21.00;32.00;;;;;;465754;256;1196;-40
2022/01/29 06:11:58;;;;;;;;;;;21.00;32.00;;;;;;465555;256;2111;-40
2022/01/29 06:14:00;;;;;;;;;;;21.00;32.00;;;;;;465577;255;1101;-40
2022/01/29 06:16:02;;;;;;;;;;;21.00;32.00;;;;;;465408;255;1114;-39
2022/01/29 06:18:03;;;;;;;;;;;20.90;32.00;;;;;;465521;256;1272;-40
2022/01/29 06:20:04;;;;;;;;;;;21.00;32.00;;;;;;465406;256;1060;-40
2022/01/29 06:22:09;;;;;;;;;;;21.00;32.00;;;;;;465783;256;1181;-40
2022/01/29 06:24:07;;;;;;;;;;;20.90;31.90;;;;;;465455;256;2494;-40
2022/01/29 06:26:09;;;;;;;;;;;21.00;32.00;;;;;;465776;256;1269;-40
2022/01/29 06:28:09;;;;;;;;;;;21.00;31.90;;;;;;465361;255;2342;-40
2022/01/29 06:30:10;;;;;;;;;;;21.00;31.90;;;;;;465777;256;1167;-40
2022/01/29 06:32:12;;;;;;;;;;;21.00;31.90;;;;;;465503;256;2142;-40
2022/01/29 06:34:13;;;;;;;;;;;21.00;31.90;;;;;;465821;255;1081;-40
2022/01/29 06:36:14;;;;;;;;;;;21.00;31.90;;;;;;465375;255;1220;-40
2022/01/29 06:38:16;;;;;;;;;;;21.10;31.90;;;;;;465408;255;1141;-40
2022/01/29 06:40:17;;;;;;;;;;;21.00;31.80;;;;;;465369;256;1140;-40
2022/01/29 06:42:18;;;;;;;;;;;21.00;31.90;;;;;;465310;256;1377;-40
2022/01/29 06:44:20;;;;;;;;;;;21.00;32.00;;;;;;465800;256;1185;-40
2022/01/29 06:46:21;;;;;;;;;;;21.00;31.90;;;;;;465600;256;1250;-40
2022/01/29 06:48:22;;;;;;;;;;;21.00;31.90;;;;;;465386;256;1271;-40
2022/01/29 06:50:24;;;;;;;;;;;21.00;32.00;;;;;;465493;255;2201;-40
2022/01/29 06:52:25;;;;;;;;;;;21.00;31.90;;;;;;465390;256;1268;-40
2022/01/29 06:54:26;;;;;;;;;;;21.00;31.90;;;;;;465616;255;1222;-40
2022/01/29 06:56:28;;;;;;;;;;;21.00;31.90;;;;;;465537;256;1183;-40
2022/01/29 06:58:29;;;;;;;;;;;21.00;32.00;;;;;;465429;256;1229;-40
2022/01/29 07:00:30;;;;;;;;;;;21.00;31.90;;;;;;465513;256;1189;-40
2022/01/29 07:02:31;;;;;;;;;;;21.00;31.90;;;;;;465554;256;1221;-40
2022/01/29 07:04:33;;;;;;;;;;;21.00;31.90;;;;;;465774;256;1153;-40
2022/01/29 07:06:36;;;;;;;;;;;21.00;31.90;;;;;;465473;256;1328;-40
2022/01/29 07:08:38;;;;;;;;;;;21.00;31.90;;;;;;465302;256;2358;-40
2022/01/29 07:10:37;;;;;;;;;;;21.00;31.90;;;;;;465625;256;2131;-40
2022/01/29 07:12:38;;;;;;;;;;;21.00;31.90;;;;;;465328;255;1221;-40
2022/01/29 07:14:40;;;;;;;;;;;21.00;32.00;;;;;;465404;256;1130;-40
2022/01/29 07:16:43;;;;;;;;;;;21.00;31.90;;;;;;465472;256;1194;-40
2022/01/29 07:18:42;;;;;;;;;;;21.00;31.90;;;;;;465315;256;2212;-40
2022/01/29 07:20:46;;;;;;;;;;;21.00;32.00;;;;;;465355;255;1448;-40
2022/01/29 07:22:45;;;;;;;;;;;21.00;32.00;;;;;;465294;256;2248;-40
2022/01/29 07:24:47;;;;;;;;;;;21.00;32.00;;;;;;465827;255;1179;-40
2022/01/29 07:26:48;;;;;;;;;;;21.00;32.00;;;;;;465519;256;1351;-40
2022/01/29 07:28:50;;;;;;;;;;;21.00;32.00;;;;;;465413;256;1515;-40
2022/01/29 07:30:52;;;;;;;;;;;21.00;32.10;;;;;;465580;256;2119;-40
2022/01/29 07:32:52;;;;;;;;;;;20.90;32.00;;;;;;465643;256;2265;-40
2022/01/29 07:34:53;;;;;;;;;;;20.90;32.10;;;;;;465829;256;1120;-40
2022/01/29 07:36:55;;;;;;;;;;;20.90;32.10;;;;;;465628;255;1490;-40
2022/01/29 07:38:56;;;;;;;;;;;20.90;32.10;;;;;;465505;255;1143;-40
2022/01/29 07:40:57;;;;;;;;;;;20.90;32.10;;;;;;465320;256;1342;-39
2022/01/29 07:42:59;;;;;;;;;;;20.90;32.10;;;;;;465684;256;1338;-40
2022/01/29 07:45:00;;;;;;;;;;;20.90;32.10;;;;;;465428;256;1111;-40
2022/01/29 07:47:01;;;;;;;;;;;20.90;32.20;;;;;;465279;256;1565;-40
2022/01/29 07:49:03;;;;;;;;;;;20.80;32.20;;;;;;465407;256;1168;-40
2022/01/29 07:51:04;;;;;;;;;;;20.80;32.20;;;;;;465668;253;2146;-40
2022/01/29 07:53:05;;;;;;;;;;;20.80;32.20;;;;;;465633;256;1239;-40
2022/01/29 07:55:07;;;;;;;;;;;20.80;32.20;;;;;;465723;256;1082;-40
2022/01/29 07:57:08;;;;;;;;;;;20.80;32.20;;;;;;465468;256;1180;-40
2022/01/29 07:59:10;;;;;;;;;;;20.80;32.20;;;;;;465485;255;1131;-40
2022/01/29 08:01:11;;;;;;;;;;;20.80;32.20;;;;;;465522;255;1246;-40
2022/01/29 08:03:12;;;;;;;;;;;20.80;32.30;;;;;;465458;255;1329;-40
2022/01/29 08:05:14;;;;;;;;;;;20.80;32.30;;;;;;465455;256;1103;-40
2022/01/29 08:07:15;;;;;;;;;;;20.80;32.30;;;;;;465512;256;1209;-40
2022/01/29 08:09:16;;;;;;;;;;;20.80;32.30;;;;;;465351;256;1100;-40
2022/01/29 08:11:17;;;;;;;;;;;20.80;32.30;;;;;;465310;256;2142;-40
2022/01/29 08:13:19;;;;;;;;;;;20.70;32.30;;;;;;465348;255;1200;-40
2022/01/29 08:15:20;;;;;;;;;;;20.70;32.30;;;;;;465456;256;1014;-40
2022/01/29 08:17:21;;;;;;;;;;;20.80;32.40;;;;;;465381;256;1184;-40
2022/01/29 08:19:23;;;;;;;;;;;20.80;32.40;;;;;;465400;256;1194;-40
2022/01/29 08:21:24;;;;;;;;;;;20.80;32.40;;;;;;465367;256;1235;-40
2022/01/29 08:23:25;;;;;;;;;;;20.70;32.30;;;;;;465348;256;1292;-40
2022/01/29 08:25:27;;;;;;;;;;;20.70;32.40;;;;;;465485;256;1162;-40
2022/01/29 08:27:28;;;;;;;;;;;20.70;32.30;;;;;;465419;256;1254;-40
2022/01/29 08:29:29;;;;;;;;;;;20.80;32.40;;;;;;465325;256;1081;-40
2022/01/29 08:31:31;;;;;;;;;;;20.80;32.30;;;;;;465192;255;2197;-40
2022/01/29 08:33:32;;;;;;;;;;;20.70;32.30;;;;;;465585;255;1195;-40
2022/01/29 08:35:33;;;;;;;;;;;20.80;32.40;;;;;;465323;256;1222;-40
2022/01/29 08:37:35;;;;;;;;;;;20.70;32.40;;;;;;465313;255;1331;-40
2022/01/29 08:39:36;;;;;;;;;;;20.70;32.40;;;;;;465790;256;1064;-40
2022/01/29 08:41:37;;;;;;;;;;;20.70;32.40;;;;;;465334;253;1477;-40
2022/01/29 08:43:38;;;;;;;;;;;20.80;32.40;;;;;;465370;256;1091;-40
2022/01/29 08:45:40;;;;;;;;;;;20.70;32.30;;;;;;465388;255;1160;-40
2022/01/29 08:47:41;;;;;;;;;;;20.70;32.40;;;;;;465576;256;1165;-40
2022/01/29 08:49:42;;;;;;;;;;;20.70;32.40;;;;;;465315;256;1332;-40
2022/01/29 08:51:44;;;;;;;;;;;20.70;32.40;;;;;;465681;255;2214;-40
2022/01/29 08:53:45;;;;;;;;;;;20.70;32.40;;;;;;465569;256;1091;-40
2022/01/29 08:55:46;;;;;;;;;;;20.70;32.40;;;;;;465484;256;1068;-40
2022/01/29 08:57:48;;;;;;;;;;;20.70;32.40;;;;;;465392;256;1622;-40
2022/01/29 08:59:49;;;;;;;;;;;20.70;32.40;;;;;;465626;256;1054;-40
2022/01/29 09:01:50;;;;;;;;;;;20.70;32.40;;;;;;465229;256;1240;-40
2022/01/29 09:03:52;;;;;;;;;;;20.70;32.40;;;;;;465347;255;1228;-40
2022/01/29 09:05:53;;;;;;;;;;;20.70;32.40;;;;;;465527;256;1355;-40
2022/01/29 09:07:55;;;;;;;;;;;20.70;32.40;;;;;;465263;256;1381;-40
2022/01/29 09:09:56;;;;;;;;;;;20.70;32.40;;;;;;465273;256;1187;-40
2022/01/29 09:11:58;;;;;;;;;;;20.70;32.40;;;;;;465078;256;2146;-40
2022/01/29 09:13:59;;;;;;;;;;;20.70;32.40;;;;;;465526;256;1161;-40
2022/01/29 09:16:00;;;;;;;;;;;20.80;32.40;;;;;;465196;256;1204;-40
2022/01/29 09:18:01;;;;;;;;;;;20.70;32.30;;;;;;465317;252;1160;-40
2022/01/29 09:20:03;;;;;;;;;;;20.70;32.30;;;;;;465398;255;1221;-40
2022/01/29 09:22:04;;;;;;;;;;;20.70;32.30;;;;;;465366;256;1319;-40
2022/01/29 09:24:05;;;;;;;;;;;20.80;32.30;;;;;;465761;256;1035;-40
2022/01/29 09:26:06;;;;;;;;;;;20.80;32.40;;;;;;465620;256;1319;-40
2022/01/29 09:28:08;;;;;;;;;;;20.80;32.30;;;;;;465305;255;1067;-40
2022/01/29 09:30:09;;;;;;;;;;;20.80;32.30;;;;;;465609;256;1081;-40
2022/01/29 09:32:10;;;;;;;;;;;20.80;32.30;;;;;;465436;252;2134;-39
2022/01/29 09:34:12;;;;;;;;;;;20.80;32.20;;;;;;465510;256;1155;-40
2022/01/29 09:36:13;;;;;;;;;;;20.80;32.20;;;;;;465499;255;1245;-40
2022/01/29 09:38:14;;;;;;;;;;;20.80;32.20;;;;;;465748;256;1210;-40
2022/01/29 09:40:16;;;;;;;;;;;20.80;32.20;;;;;;465746;256;1056;-40
2022/01/29 09:42:17;;;;;;;;;;;20.80;32.10;;;;;;465193;256;1199;-40
2022/01/29 09:44:18;;;;;;;;;;;20.90;32.20;;;;;;465527;256;1337;-40
2022/01/29 09:46:20;;;;;;;;;;;20.90;32.10;;;;;;465208;256;1346;-40
2022/01/29 09:48:21;;;;;;;;;;;20.90;32.10;;;;;;465282;256;1272;-40
2022/01/29 09:50:22;;;;;;;;;;;20.90;32.00;;;;;;465355;256;1199;-40
2022/01/29 09:52:23;;;;;;;;;;;20.90;32.10;;;;;;465485;256;2188;-40
2022/01/29 09:54:25;;;;;;;;;;;20.90;32.00;;;;;;465294;256;1135;-40
2022/01/29 09:56:28;;;;;;;;;;;20.90;32.00;;;;;;465182;256;1344;-40
2022/01/29 09:58:27;;;;;;;;;;;20.90;32.00;;;;;;465233;256;2047;-40
2022/01/29 10:00:29;;;;;;;;;;;20.90;32.00;;;;;;465656;256;1227;-40
2022/01/29 10:02:30;;;;;;;;;;;20.90;32.10;;;;;;465281;255;1473;-40
2022/01/29 10:04:33;;;;;;;;;;;20.90;32.00;;;;;;465301;256;1276;-40
2022/01/29 10:06:33;;;;;;;;;;;20.90;32.00;;;;;;465217;256;2289;-40
2022/01/29 10:08:34;;;;;;;;;;;20.90;32.00;;;;;;465344;256;1263;-40
2022/01/29 10:10:35;;;;;;;;;;;20.90;32.00;;;;;;465660;256;1165;-40
2022/01/29 10:12:37;;;;;;;;;;;20.90;32.10;;;;;;465488;256;2135;-40
2022/01/29 10:14:38;;;;;;;;;;;20.90;32.00;;;;;;465397;256;1134;-40
2022/01/29 10:16:39;;;;;;;;;;;20.90;32.00;;;;;;465402;255;1369;-40
2022/01/29 10:18:41;;;;;;;;;;;20.90;32.00;;;;;;465622;256;1189;-40
2022/01/29 10:20:43;;;;;;;;;;;21.00;32.10;;;;;;465361;256;1218;-40
2022/01/29 10:22:43;;;;;;;;;;;21.00;32.00;;;;;;465348;256;2339;-40
2022/01/29 10:24:44;;;;;;;;;;;21.00;31.90;;;;;;465779;256;1164;-40
2022/01/29 10:26:46;;;;;;;;;;;21.00;32.00;;;;;;465406;255;1162;-40
2022/01/29 10:28:47;;;;;;;;;;;21.00;31.90;;;;;;465497;256;1196;-40
2022/01/29 10:30:48;;;;;;;;;;;21.00;32.00;;;;;;465413;253;1336;-40
2022/01/29 10:32:50;;;;;;;;;;;21.00;32.00;;;;;;465500;256;2135;-40
2022/01/29 10:34:51;;;;;;;;;;;21.00;32.00;;;;;;465312;256;1457;-40
2022/01/29 10:36:52;;;;;;;;;;;20.90;32.00;;;;;;465457;255;1342;-40
2022/01/29 10:38:55;;;;;;;;;;;21.00;32.00;;;;;;465600;256;1237;-40
2022/01/29 10:40:55;;;;;;;;;;;21.00;32.00;;;;;;465461;256;2400;-40
2022/01/29 10:42:56;;;;;;;;;;;21.00;31.90;;;;;;465348;256;1245;-40
2022/01/29 10:44:59;;;;;;;;;;;21.00;31.90;;;;;;465601;256;1060;-40
2022/01/29 10:46:59;;;;;;;;;;;21.00;31.90;;;;;;465400;255;2372;-40
2022/01/29 10:49:00;;;;;;;;;;;21.00;31.90;;;;;;465387;256;1102;-40
2022/01/29 10:51:02;;;;;;;;;;;21.00;31.90;;;;;;465291;256;1246;-40
2022/01/29 10:53:03;;;;;;;;;;;21.00;31.90;;;;;;465354;256;2135;-40
2022/01/29 10:55:04;;;;;;;;;;;21.00;31.90;;;;;;465377;256;1073;-40
2022/01/29 10:57:05;;;;;;;;;;;21.00;31.90;;;;;;465507;256;1238;-40
2022/01/29 10:59:07;;;;;;;;;;;21.00;31.90;;;;;;465330;255;1077;-40
2022/01/29 11:01:08;;;;;;;;;;;21.00;31.90;;;;;;465234;256;1210;-40
2022/01/29 11:03:09;;;;;;;;;;;21.00;31.90;;;;;;465269;256;1186;-40
2022/01/29 11:05:11;;;;;;;;;;;21.00;31.90;;;;;;465252;256;1191;-40
2022/01/29 11:07:16;;;;;;;;;;;21.00;31.90;;;;;;465155;255;1556;-40
2022/01/29 11:09:14;;;;;;;;;;;21.00;31.90;;;;;;465335;256;2327;-40
2022/01/29 11:11:15;;;;;;;;;;;21.00;31.90;;;;;;465377;256;1519;-40
2022/01/29 11:13:16;;;;;;;;;;;21.10;31.90;;;;;;465339;256;2201;-39
2022/01/29 11:15:18;;;;;;;;;;;21.10;31.80;;;;;;465744;256;1104;-40
2022/01/29 11:17:19;;;;;;;;;;;21.10;31.90;;;;;;465411;256;1208;-40
2022/01/29 11:19:20;;;;;;;;;;;21.00;31.90;;;;;;465508;255;1105;-40
2022/01/29 11:21:21;;;;;;;;;;;21.10;31.90;;;;;;465366;255;1260;-40
2022/01/29 11:23:23;;;;;;;;;;;21.00;31.90;;;;;;465493;256;1209;-40
2022/01/29 11:25:24;;;;;;;;;;;21.00;31.90;;;;;;465388;255;1008;-40
2022/01/29 11:27:25;;;;;;;;;;;21.10;31.90;;;;;;465251;255;1334;-40
2022/01/29 11:29:27;;;;;;;;;;;21.10;31.90;;;;;;465627;256;1204;-40
2022/01/29 11:31:28;;;;;;;;;;;21.10;31.90;;;;;;465335;255;2178;-40
2022/01/29 11:33:29;;;;;;;;;;;21.10;31.80;;;;;;465559;256;2189;-40
2022/01/29 11:35:31;;;;;;;;;;;21.10;31.80;;;;;;465266;256;1170;-40
2022/01/29 11:37:32;;;;;;;;;;;21.10;31.80;;;;;;465411;256;1555;-40
2022/01/29 11:39:36;;;;;;;;;;;21.10;31.90;;;;;;465289;255;1207;-40
2022/01/29 11:41:36;;;;;;;;;;;21.10;31.80;;;;;;465131;256;1618;-40
2022/01/29 11:43:38;;;;;;;;;;;21.10;31.80;;;;;;465419;256;1366;-40
2022/01/29 11:45:42;;;;;;;;;;;21.10;31.80;;;;;;465458;256;1528;-40
2022/01/29 11:47:43;;;;;;;;;;;21.10;31.90;;;;;;465310;255;2472;-40
2022/01/29 11:49:44;;;;;;;;;;;21.10;31.80;;;;;;465371;256;1166;-40
2022/01/29 11:51:45;;;;;;;;;;;21.10;31.80;;;;;;465214;256;1371;-40
2022/01/29 11:53:48;;;;;;;;;;;21.10;31.80;;;;;;465266;256;2152;-40
2022/01/29 11:55:48;;;;;;;;;;;21.10;31.80;;;;;;465418;255;2128;-40
2022/01/29 11:57:49;;;;;;;;;;;21.10;31.80;;;;;;465513;256;1587;-40
2022/01/29 11:59:50;;;;;;;;;;;21.10;31.80;;;;;;465628;256;1072;-40
2022/01/29 12:01:52;;;;;;;;;;;21.10;31.80;;;;;;465508;256;1261;-40
2022/01/29 12:03:53;;;;;;;;;;;21.10;31.80;;;;;;465332;256;1198;-40
2022/01/29 12:05:55;;;;;;;;;;;21.10;31.80;;;;;;465283;256;1244;-40